createdAt,value
2023-03-26T00:00:40.772Z,7.64
2023-03-26T00:05:45.034Z,8.29
2023-03-26T00:10:47.304Z,8.52
2023-03-26T00:15:48.887Z,8.27
2023-03-26T00:20:52.635Z,8.26
2023-03-26T00:25:56.328Z,8.13
2023-03-26T00:31:03.896Z,8.11
2023-03-26T00:36:10.047Z,8.28
2023-03-26T00:41:25.104Z,8.43
2023-03-26T00:46:31.439Z,8.27
2023-03-26T00:51:34.142Z,8.08
2023-03-26T00:56:36.016Z,8.14
2023-03-26T01:06:42.106Z,7.73
2023-03-26T01:11:44.957Z,8.26
2023-03-26T01:16:58.086Z,7.75
2023-03-26T01:22:00.639Z,7.78
2023-03-26T01:27:39.053Z,7.63
2023-03-26T01:33:05.582Z,7.69
2023-03-26T01:38:12.924Z,7.44
2023-03-26T01:43:29.628Z,7.46
2023-03-26T01:48:39.534Z,7.35
2023-03-26T01:53:45.043Z,7.08
2023-03-26T01:59:01.561Z,7.09
2023-03-26T02:04:20.909Z,7.13
2023-03-26T02:09:26.161Z,7.26
2023-03-26T02:14:30.416Z,7.54
2023-03-26T02:19:32.046Z,7.00
2023-03-26T02:24:33.646Z,7.15
2023-03-26T02:29:39.930Z,7.51
2023-03-26T02:34:41.937Z,7.03
2023-03-26T02:39:43.643Z,6.86
2023-03-26T02:44:45.301Z,7.24
2023-03-26T02:49:46.944Z,7.36
2023-03-26T02:54:48.593Z,7.08
2023-03-26T02:59:50.482Z,7.40
2023-03-26T03:04:52.090Z,6.95
2023-03-26T03:09:53.677Z,6.59
2023-03-26T03:14:55.265Z,7.00
2023-03-26T03:19:56.943Z,6.58
2023-03-26T03:25:00.013Z,7.21
2023-03-26T03:30:01.656Z,6.59
2023-03-26T03:35:03.425Z,6.90
2023-03-26T03:40:08.349Z,6.61
2023-03-26T03:45:10.497Z,6.87
2023-03-26T03:50:12.124Z,6.50
2023-03-26T03:55:14.171Z,6.62
2023-03-26T04:00:16.270Z,6.64
2023-03-26T04:05:17.853Z,6.44
2023-03-26T04:10:19.543Z,6.12
2023-03-26T04:15:21.177Z,5.99
2023-03-26T04:20:23.322Z,5.77
2023-03-26T04:25:30.442Z,5.78
2023-03-26T04:30:33.769Z,6.04
2023-03-26T04:35:35.655Z,6.42
2023-03-26T04:40:39.183Z,6.67
2023-03-26T04:45:40.799Z,6.53
2023-03-26T04:50:44.415Z,6.41
2023-03-26T04:55:57.382Z,6.29
2023-03-26T05:01:09.713Z,6.33
2023-03-26T05:06:13.845Z,6.61
2023-03-26T05:11:15.568Z,6.75
2023-03-26T05:16:17.333Z,6.40
2023-03-26T05:21:18.996Z,6.13
2023-03-26T05:26:21.059Z,5.78
2023-03-26T05:31:22.747Z,6.24
2023-03-26T05:36:24.676Z,5.91
2023-03-26T05:41:26.439Z,6.30
2023-03-26T05:46:29.017Z,5.73
2023-03-26T05:51:30.718Z,5.91
2023-03-26T05:56:32.396Z,6.15
2023-03-26T06:01:34.060Z,6.17
2023-03-26T06:06:36.148Z,6.08
2023-03-26T06:11:37.755Z,6.18
2023-03-26T06:16:39.404Z,6.53
2023-03-26T06:21:41.112Z,6.77
2023-03-26T06:26:43.105Z,6.74
2023-03-26T06:31:44.770Z,6.88
2023-03-26T06:36:48.825Z,6.65
2023-03-26T06:41:50.480Z,6.80
2023-03-26T06:46:52.216Z,6.99
2023-03-26T06:51:53.891Z,7.23
2023-03-26T06:56:56.454Z,7.06
2023-03-26T07:01:58.086Z,7.15
2023-03-26T07:06:59.744Z,7.23
2023-03-26T07:12:01.444Z,7.27
2023-03-26T07:17:03.072Z,7.22
2023-03-26T07:22:06.502Z,7.26
2023-03-26T07:27:32.609Z,7.03
2023-03-26T07:32:40.401Z,6.67
2023-03-26T07:38:01.183Z,7.06
2023-03-26T07:44:01.625Z,7.30
2023-03-26T07:49:04.902Z,7.38
2023-03-26T07:54:09.042Z,7.21
2023-03-26T07:59:10.595Z,7.54
2023-03-26T08:04:39.313Z,7.49
2023-03-26T08:09:57.066Z,7.68
2023-03-26T08:15:11.082Z,7.90
2023-03-26T08:20:21.416Z,7.81
2023-03-26T08:25:28.215Z,8.09
2023-03-26T08:30:31.039Z,8.07
2023-03-26T08:35:35.299Z,7.58
2023-03-26T08:40:55.875Z,7.97
2023-03-26T08:46:21.560Z,7.71
2023-03-26T08:51:45.766Z,8.05
2023-03-26T08:57:18.283Z,8.27
2023-03-26T09:02:22.932Z,8.23
2023-03-26T09:07:44.271Z,8.46
2023-03-26T09:13:07.032Z,8.54
2023-03-26T09:18:20.726Z,8.64
2023-03-26T09:23:52.682Z,8.67
2023-03-26T09:29:09.291Z,8.86
2023-03-26T09:34:13.631Z,8.96
2023-03-26T09:39:36.511Z,9.19
2023-03-26T09:45:12.125Z,9.32
2023-03-26T09:50:31.838Z,9.37
2023-03-26T09:55:51.082Z,9.53
2023-03-26T10:01:20.491Z,9.27
2023-03-26T10:06:41.484Z,9.38
2023-03-26T10:12:06.065Z,9.49
2023-03-26T10:17:35.852Z,9.60
2023-03-26T10:23:16.788Z,9.78
2023-03-26T10:28:51.133Z,9.92
2023-03-26T10:34:10.392Z,10.04
2023-03-26T10:39:56.377Z,10.62
2023-03-26T10:45:31.686Z,10.74
2023-03-26T10:51:00.165Z,10.99
2023-03-26T10:56:15.024Z,10.88
2023-03-26T11:01:36.020Z,11.29
2023-03-26T11:06:51.682Z,11.17
2023-03-26T11:12:26.553Z,11.45
2023-03-26T11:17:54.965Z,11.51
2023-03-26T11:23:22.937Z,11.89
2023-03-26T11:29:03.309Z,11.82
2023-03-26T11:34:13.557Z,11.96
2023-03-26T11:39:23.269Z,11.96
2023-03-26T11:44:30.909Z,12.69
2023-03-26T11:49:32.998Z,12.87
2023-03-26T11:54:34.830Z,12.78
2023-03-26T11:59:57.165Z,12.86
2023-03-26T12:05:15.596Z,12.66
2023-03-26T12:10:25.006Z,13.37
2023-03-26T12:15:27.965Z,12.77
2023-03-26T12:20:29.569Z,13.59
2023-03-26T12:25:39.214Z,13.78
2023-03-26T12:30:50.833Z,13.48
2023-03-26T12:35:53.338Z,13.96
2023-03-26T12:42:52.888Z,14.48
2023-03-26T12:47:55.730Z,14.17
2023-03-26T12:52:23.309Z,13.91
2023-03-26T12:57:47.242Z,14.11
2023-03-26T13:03:04.127Z,14.23
2023-03-26T13:08:49.812Z,13.90
2023-03-26T13:14:13.991Z,14.15
2023-03-26T13:19:28.889Z,13.92
2023-03-26T13:24:39.926Z,13.54
2023-03-26T13:30:01.738Z,13.74
2023-03-26T13:35:22.360Z,14.12
2023-03-26T13:40:36.584Z,14.29
2023-03-26T13:46:20.333Z,13.98
2023-03-26T13:51:30.994Z,14.11
2023-03-26T13:56:43.261Z,13.89
2023-03-26T14:01:53.603Z,13.76
2023-03-26T14:07:16.249Z,13.75
2023-03-26T14:12:51.647Z,13.59
2023-03-26T14:18:16.028Z,13.57
2023-03-26T14:23:55.469Z,13.61
2023-03-26T14:29:12.493Z,13.60
2023-03-26T14:34:23.574Z,13.53
2023-03-26T14:39:51.945Z,13.51
2023-03-26T14:45:24.095Z,13.34
2023-03-26T14:50:50.551Z,13.37
2023-03-26T14:56:04.661Z,13.26
2023-03-26T15:01:27.116Z,13.37
2023-03-26T15:07:07.087Z,13.31
2023-03-26T15:12:23.603Z,13.33
2023-03-26T15:17:37.203Z,13.18
2023-03-26T15:23:09.391Z,13.16
2023-03-26T15:28:48.769Z,13.18
2023-03-26T15:34:20.160Z,13.04
2023-03-26T15:39:58.656Z,12.99
2023-03-26T15:45:20.375Z,12.97
2023-03-26T15:50:46.727Z,12.74
2023-03-26T15:56:03.133Z,12.61
2023-03-26T16:01:41.955Z,12.72
2023-03-26T16:07:11.803Z,12.70
2023-03-26T16:12:17.350Z,12.49
2023-03-26T16:17:23.471Z,12.68
2023-03-26T16:22:57.176Z,12.28
2023-03-26T16:28:28.482Z,12.14
2023-03-26T16:33:39.041Z,12.00
2023-03-26T16:38:54.902Z,12.01
2023-03-26T16:44:11.021Z,12.00
2023-03-26T16:49:19.536Z,11.99
2023-03-26T16:54:37.177Z,11.96
2023-03-26T16:59:46.822Z,11.96
2023-03-26T17:05:45.914Z,11.82
2023-03-26T17:11:08.557Z,11.78
2023-03-26T17:16:27.512Z,11.62
2023-03-26T17:22:25.511Z,11.43
2023-03-26T17:27:56.805Z,11.34
2023-03-26T17:33:24.160Z,11.09
2023-03-26T17:38:27.238Z,11.19
2023-03-26T17:43:46.141Z,11.23
2023-03-26T17:48:57.697Z,11.13
2023-03-26T17:54:00.891Z,10.85
2023-03-26T17:59:11.297Z,10.34
2023-03-26T18:04:27.758Z,10.59
2023-03-26T18:09:49.129Z,10.68
2023-03-26T18:15:30.481Z,10.71
2023-03-26T18:20:37.362Z,10.46
2023-03-26T18:25:41.546Z,10.49
2023-03-26T18:30:49.311Z,10.38
2023-03-26T18:35:55.748Z,10.46
2023-03-26T18:40:59.546Z,10.53
2023-03-26T18:46:04.286Z,10.09
2023-03-26T18:51:08.152Z,10.27
2023-03-26T18:56:41.004Z,10.35
2023-03-26T19:01:47.260Z,10.37
2023-03-26T19:06:54.482Z,10.51
2023-03-26T19:11:59.418Z,10.45
2023-03-26T19:17:05.867Z,10.35
2023-03-26T19:22:12.751Z,10.50
2023-03-26T19:27:16.121Z,10.52
2023-03-26T19:32:32.511Z,10.52
2023-03-26T19:37:35.237Z,10.47
2023-03-26T19:42:42.978Z,10.35
2023-03-26T19:47:56.924Z,10.39
2023-03-26T19:53:16.779Z,10.42
2023-03-26T19:58:20.401Z,10.34
2023-03-26T20:03:31.373Z,10.35
2023-03-26T20:08:33.975Z,10.25
2023-03-26T20:13:37.817Z,10.28
2023-03-26T20:18:40.641Z,10.23
2023-03-26T20:23:44.438Z,10.26
2023-03-26T20:28:52.741Z,10.19
2023-03-26T20:33:56.577Z,10.05
2023-03-26T20:38:58.971Z,9.98
2023-03-26T20:44:01.551Z,10.19
2023-03-26T20:49:04.958Z,9.94
2023-03-26T20:54:08.620Z,9.79
2023-03-26T20:59:15.006Z,9.67
2023-03-26T21:04:17.920Z,9.79
2023-03-26T21:09:24.094Z,9.80
2023-03-26T21:14:32.245Z,9.75
2023-03-26T21:19:34.154Z,9.75
2023-03-26T21:25:01.483Z,9.70
2023-03-26T21:30:06.053Z,9.80
2023-03-26T21:35:08.688Z,9.44
2023-03-26T21:40:16.419Z,9.47
2023-03-26T21:45:19.439Z,9.38
2023-03-26T21:50:23.620Z,9.28
2023-03-26T21:55:25.948Z,9.36
2023-03-26T22:00:43.209Z,9.25
2023-03-26T22:06:08.652Z,9.40
2023-03-26T22:11:12.315Z,9.44
2023-03-26T22:16:14.021Z,9.34
2023-03-26T22:21:15.649Z,9.48
2023-03-26T22:26:17.213Z,9.54
2023-03-26T22:31:19.410Z,9.23
2023-03-26T22:36:23.150Z,9.45
2023-03-26T22:41:25.849Z,9.60
2023-03-26T22:46:28.924Z,9.24
2023-03-26T22:51:31.018Z,9.46
2023-03-26T22:56:32.897Z,9.47
2023-03-26T23:01:34.867Z,9.17
2023-03-26T23:06:36.757Z,9.02
2023-03-26T23:11:39.510Z,8.86
2023-03-26T23:16:42.410Z,9.21
2023-03-26T23:21:44.116Z,8.90
2023-03-26T23:26:50.768Z,9.13
2023-03-26T23:31:54.040Z,8.99
2023-03-26T23:36:55.754Z,8.78
2023-03-26T23:41:57.359Z,9.00
2023-03-26T23:47:00.569Z,9.20
2023-03-26T23:52:02.175Z,9.03
2023-03-26T23:57:04.111Z,8.80
